Terminal Aerodrome Forecast
Issued by NWS

Home | Current Version | Previous Version | Graphics & Text | Print | Product List | Glossary On
Versions: 1 2 3 4 5 6 7 8 9 10 11 12 13 14 15 16 17 18 19 20 21 22
000
FTUS43 KTOP 271242 AAA
TAFFOE
TAF AMD
KFOE 271242Z 2713/2812 00000KT 1/4SM FG VV002
      TEMPO 2713/2715 1SM BR
     FM271500 15006KT 4SM BR SKC
     FM271600 15011KT P6SM SCT200
     FM272000 15013KT P6SM BKN070
     FM280200 16008KT P6SM SCT006 BKN022
     FM280600 18012KT P6SM SCT004 BKN012=

USA.gov is the U.S. government's official web portal to all federal, state and local government web resources and services.